SBOSBO SNN / EINN
Speedbird OnlineSpeedbird Online SNN / EINN

Shannon Airport
06:04 14°C

Location Shannon, Ireland
Latitude: 52.702
Longitude: -8.92482
Altitude 14 Meter / 46 Feet
Distance 632 KM / 393 Miles
from London.
Time Zone UTC +1 hours (Europe/Dublin)
Codes IATA: SNN
ICAO: EINN
Currency £1 equals EUR 1.19
METAR EINN 160430Z 35014KT 9999 FEW016 SCT050 BKN060 14/10 Q1011 NOSIG
TAF TAF EINN 152300Z 1600/1624 36012KT 9999 FEW025 SCT040 PROB30 TEMPO 1609/1617 01015G25KT
Weather As Of 16 Aug 2022 05:52
Description Broken clouds
Wind 26 km/h from North (350°)
Cloud Cover 75%
Precipitation Rain: none, Snow: none
Sunrise 06:19
Sunset 21:01
Lounges The Ború Lounge, Terminal 1
Rotations During the last 90 days there were
2 flights from LHR
2 flights from SNN
2 flights to LHR
2 flights to SNN
1 flights to EWR


© 2017-2022 Speedbird Online